Time;durP1;ratioP1;P1;durP2;ratioP2;P2;SDS_P1;SDS_P2;PMS_P1;PMS_P2;Temp;Humidity;BMP_temperature;BMP_pressure;BME280_temperature;BME280_humidity;BME280_pressure;Samples;Min_cycle;Max_cycle;Signal;HPM_P1;HPM_P2
2022/08/22 00:01:14;;;;;;;0.70;0.70;;;;;;;;;;1833345;76;26754;-55
2022/08/22 00:03:52;;;;;;;0.98;0.90;;;;;;;;;;1810353;77;26283;-56
2022/08/22 00:06:21;;;;;;;0.80;0.80;;;;;;;;;;1852502;77;27160;-57
2022/08/22 00:08:55;;;;;;;1.02;0.95;;;;;;;;;;1862297;75;26279;-56
2022/08/22 00:11:24;;;;;;;0.95;0.90;;;;;;;;;;1863995;77;26267;-55
2022/08/22 00:14:02;;;;;;;1.00;0.80;;;;;;;;;;1858363;77;26309;-55
2022/08/22 00:16:39;;;;;;;0.80;0.80;;;;;;;;;;1772117;79;26750;-56
2022/08/22 00:19:11;;;;;;;0.80;0.80;;;;;;;;;;1842844;77;26335;-49
2022/08/22 00:21:43;;;;;;;0.95;0.95;;;;;;;;;;1849748;77;26312;-54
2022/08/22 00:24:14;;;;;;;0.80;0.80;;;;;;;;;;1842686;77;26259;-55
2022/08/22 00:26:46;;;;;;;0.93;0.80;;;;;;;;;;1856274;76;26262;-53
2022/08/22 00:29:15;;;;;;;0.80;0.80;;;;;;;;;;1849815;77;26294;-56
2022/08/22 00:31:44;;;;;;;0.75;0.75;;;;;;;;;;1861803;77;26271;-55
2022/08/22 00:34:15;;;;;;;0.78;0.78;;;;;;;;;;1860868;77;26340;-56
2022/08/22 00:36:47;;;;;;;0.80;0.80;;;;;;;;;;1862380;77;26212;-56
2022/08/22 00:39:15;;;;;;;1.25;0.82;;;;;;;;;;1821802;77;26277;-57
2022/08/22 00:41:44;;;;;;;0.95;0.90;;;;;;;;;;1818774;77;26262;-54
2022/08/22 00:44:22;;;;;;;0.82;0.82;;;;;;;;;;1859873;77;26730;-56
2022/08/22 00:47:08;;;;;;;0.80;0.80;;;;;;;;;;1841773;75;26211;-55
2022/08/22 00:49:53;;;;;;;1.00;1.00;;;;;;;;;;1856977;76;26284;-57
2022/08/22 00:52:22;;;;;;;0.80;0.80;;;;;;;;;;1862956;75;26283;-56
2022/08/22 00:55:03;;;;;;;1.42;0.80;;;;;;;;;;1857794;76;26222;-55
2022/08/22 00:57:32;;;;;;;0.70;0.70;;;;;;;;;;1859011;76;26251;-56
2022/08/22 01:00:13;;;;;;;0.70;0.70;;;;;;;;;;1860548;76;26266;-56
2022/08/22 01:02:44;;;;;;;0.90;0.90;;;;;;;;;;1858754;76;26297;-55
2022/08/22 01:05:22;;;;;;;1.05;1.05;;;;;;;;;;1859896;75;26834;-56
2022/08/22 01:07:54;;;;;;;0.82;0.82;;;;;;;;;;1858014;76;26211;-56
2022/08/22 01:10:40;;;;;;;0.90;0.90;;;;;;;;;;1835734;76;26309;-55
2022/08/22 01:13:25;;;;;;;0.80;0.80;;;;;;;;;;1834869;76;26352;-54
2022/08/22 01:15:54;;;;;;;1.05;1.05;;;;;;;;;;1846017;75;26251;-54
2022/08/22 01:18:23;;;;;;;0.80;0.80;;;;;;;;;;1844050;76;26333;-56
2022/08/22 01:21:08;;;;;;;1.47;1.00;;;;;;;;;;1851797;76;26276;-54
2022/08/22 01:23:37;;;;;;;0.90;0.90;;;;;;;;;;1849345;75;26281;-56
2022/08/22 01:26:13;;;;;;;0.80;0.80;;;;;;;;;;1842535;77;26258;-54
2022/08/22 01:28:57;;;;;;;1.02;0.98;;;;;;;;;;1854200;76;26217;-55
2022/08/22 01:31:32;;;;;;;0.90;0.90;;;;;;;;;;1820298;77;26715;-56
2022/08/22 01:34:01;;;;;;;0.82;0.82;;;;;;;;;;1841189;77;26360;-54
2022/08/22 01:36:39;;;;;;;1.00;1.00;;;;;;;;;;1848873;77;26269;-54
2022/08/22 01:39:11;;;;;;;0.80;0.80;;;;;;;;;;1835437;76;26324;-54
2022/08/22 01:41:48;;;;;;;1.00;1.00;;;;;;;;;;1861201;77;26298;-56
2022/08/22 01:44:26;;;;;;;0.90;0.90;;;;;;;;;;1855459;77;26702;-55
2022/08/22 01:46:55;;;;;;;0.75;0.75;;;;;;;;;;1849914;76;26287;-54
2022/08/22 01:49:33;;;;;;;1.00;1.00;;;;;;;;;;1862294;77;26313;-56
2022/08/22 01:52:07;;;;;;;0.90;0.90;;;;;;;;;;1863506;77;26278;-56
2022/08/22 01:54:36;;;;;;;0.82;0.82;;;;;;;;;;1858156;77;26616;-56
2022/08/22 01:57:06;;;;;;;0.90;0.90;;;;;;;;;;1862769;77;26669;-57
2022/08/22 01:59:41;;;;;;;1.12;1.05;;;;;;;;;;1858341;77;26270;-55
2022/08/22 02:02:09;;;;;;;0.90;0.90;;;;;;;;;;1862472;77;26335;-55
2022/08/22 02:04:45;;;;;;;0.90;0.90;;;;;;;;;;1860645;77;26219;-56
2022/08/22 02:07:26;;;;;;;0.98;0.98;;;;;;;;;;1848995;76;26638;-57
2022/08/22 02:10:01;;;;;;;1.35;1.12;;;;;;;;;;1852734;76;26745;-56
2022/08/22 02:12:33;;;;;;;0.85;0.85;;;;;;;;;;1848955;77;26683;-57
2022/08/22 02:15:20;;;;;;;0.90;0.90;;;;;;;;;;1844042;77;26379;-56
2022/08/22 02:17:55;;;;;;;0.80;0.80;;;;;;;;;;1856156;76;26262;-55
2022/08/22 02:20:24;;;;;;;0.98;0.98;;;;;;;;;;1848456;77;26741;-57
2022/08/22 02:22:59;;;;;;;1.10;1.10;;;;;;;;;;1856852;77;26714;-56
2022/08/22 02:25:27;;;;;;;0.93;0.93;;;;;;;;;;1851794;76;27186;-56
2022/08/22 02:28:08;;;;;;;0.90;0.90;;;;;;;;;;1849418;77;26294;-53
2022/08/22 02:30:43;;;;;;;0.80;0.80;;;;;;;;;;1861268;77;26289;-55
2022/08/22 02:33:12;;;;;;;1.00;1.00;;;;;;;;;;1855726;76;26348;-56
2022/08/22 02:35:41;;;;;;;1.00;1.00;;;;;;;;;;1862440;77;26282;-55
2022/08/22 02:38:18;;;;;;;0.90;0.90;;;;;;;;;;1860864;77;26337;-57
2022/08/22 02:40:47;;;;;;;0.93;0.93;;;;;;;;;;1853522;75;26365;-53
2022/08/22 02:43:17;;;;;;;1.10;1.10;;;;;;;;;;1864168;75;26254;-56
2022/08/22 02:46:02;;;;;;;0.70;0.70;;;;;;;;;;1864266;75;26777;-56
2022/08/22 02:48:31;;;;;;;0.90;0.90;;;;;;;;;;1864641;76;26672;-57
2022/08/22 02:51:03;;;;;;;1.00;1.00;;;;;;;;;;1864015;76;26348;-57
2022/08/22 02:53:31;;;;;;;0.80;0.80;;;;;;;;;;1854476;75;26881;-56
2022/08/22 02:56:00;;;;;;;1.02;0.90;;;;;;;;;;1861328;76;26751;-56
2022/08/22 02:58:38;;;;;;;1.00;0.90;;;;;;;;;;1851950;76;26335;-57
2022/08/22 03:01:10;;;;;;;0.80;0.80;;;;;;;;;;1863644;76;26263;-55
2022/08/22 03:03:39;;;;;;;1.00;1.00;;;;;;;;;;1850184;76;26735;-55
2022/08/22 03:06:08;;;;;;;0.82;0.82;;;;;;;;;;1853798;76;26718;-56
2022/08/22 03:08:37;;;;;;;1.10;1.00;;;;;;;;;;1865397;75;26332;-57
2022/08/22 03:11:05;;;;;;;0.95;0.93;;;;;;;;;;1864152;76;26281;-57
2022/08/22 03:13:34;;;;;;;0.95;0.95;;;;;;;;;;1862503;76;26333;-56
2022/08/22 03:16:06;;;;;;;0.80;0.80;;;;;;;;;;1856337;76;26310;-56
2022/08/22 03:18:47;;;;;;;0.80;0.80;;;;;;;;;;1861798;76;26750;-56
2022/08/22 03:21:25;;;;;;;2.05;0.90;;;;;;;;;;1855454;76;26383;-55
2022/08/22 03:23:53;;;;;;;1.07;0.98;;;;;;;;;;1856644;76;26209;-54
2022/08/22 03:26:35;;;;;;;0.93;0.90;;;;;;;;;;1864454;76;26255;-55
2022/08/22 03:29:04;;;;;;;0.90;0.90;;;;;;;;;;1834181;76;26384;-56
2022/08/22 03:31:31;;;;;;;0.90;0.90;;;;;;;;;;1864805;76;26219;-57
2022/08/22 03:34:21;;;;;;;1.05;0.90;;;;;;;;;;1846855;76;27379;-56
2022/08/22 03:36:59;;;;;;;0.82;0.80;;;;;;;;;;1848084;76;26745;-55
2022/08/22 03:39:40;;;;;;;0.90;0.90;;;;;;;;;;1859908;75;26308;-56
2022/08/22 03:42:21;;;;;;;1.40;0.93;;;;;;;;;;1838281;76;26766;-55
2022/08/22 03:44:53;;;;;;;0.80;0.80;;;;;;;;;;1822547;77;26346;-56
2022/08/22 03:47:34;;;;;;;1.70;0.80;;;;;;;;;;1820009;77;26672;-56
2022/08/22 03:50:09;;;;;;;0.72;0.72;;;;;;;;;;1818279;77;26777;-55
2022/08/22 03:55:47;;;;;;;1.00;0.88;;;;;;;;;;1832368;77;26388;-56
2022/08/22 03:58:16;;;;;;;1.30;0.90;;;;;;;;;;1830958;77;26344;-53
2022/08/22 04:01:02;;;;;;;1.10;0.95;;;;;;;;;;1831989;77;26216;-57
2022/08/22 04:03:36;;;;;;;1.22;1.20;;;;;;;;;;1831165;77;26275;-56
2022/08/22 04:06:05;;;;;;;0.90;0.90;;;;;;;;;;1823502;77;26718;-56
2022/08/22 04:08:37;;;;;;;0.93;0.85;;;;;;;;;;1817721;77;26883;-57
2022/08/22 04:11:06;;;;;;;0.85;0.85;;;;;;;;;;1821649;77;26777;-56
2022/08/22 04:13:38;;;;;;;0.88;0.88;;;;;;;;;;1826371;77;26800;-57
2022/08/22 04:16:10;;;;;;;0.93;0.93;;;;;;;;;;1830206;77;26266;-57
2022/08/22 04:18:42;;;;;;;0.98;0.98;;;;;;;;;;1818875;77;26342;-56
2022/08/22 04:21:16;;;;;;;1.00;1.00;;;;;;;;;;1829620;77;26360;-57
2022/08/22 04:24:02;;;;;;;0.90;0.90;;;;;;;;;;1813139;77;26297;-55
2022/08/22 04:26:46;;;;;;;0.90;0.90;;;;;;;;;;1813769;77;26281;-58
2022/08/22 04:29:17;;;;;;;1.50;1.00;;;;;;;;;;1810514;77;26262;-56
2022/08/22 04:31:46;;;;;;;1.00;1.00;;;;;;;;;;1819108;77;26293;-56
2022/08/22 04:34:15;;;;;;;0.90;0.90;;;;;;;;;;1813398;77;26333;-53
2022/08/22 04:36:44;;;;;;;0.90;0.90;;;;;;;;;;1818434;77;26274;-56
2022/08/22 04:39:19;;;;;;;0.95;0.95;;;;;;;;;;1821425;77;26865;-56
2022/08/22 04:41:57;;;;;;;0.98;0.98;;;;;;;;;;1823838;76;26404;-56
2022/08/22 04:44:31;;;;;;;1.22;0.90;;;;;;;;;;1831699;77;26255;-57
2022/08/22 04:46:59;;;;;;;1.55;1.00;;;;;;;;;;1791362;77;26230;-57
2022/08/22 04:49:42;;;;;;;1.00;1.00;;;;;;;;;;1812638;77;25530;-56
2022/08/22 04:52:11;;;;;;;1.12;1.02;;;;;;;;;;1745088;78;26278;-57
2022/08/22 04:54:46;;;;;;;0.90;0.90;;;;;;;;;;1831694;77;26273;-56
2022/08/22 04:57:14;;;;;;;1.00;1.00;;;;;;;;;;1778162;78;26278;-53
2022/08/22 04:59:42;;;;;;;0.90;0.90;;;;;;;;;;1830744;77;26355;-56
2022/08/22 05:02:11;;;;;;;2.05;1.00;;;;;;;;;;1817597;77;26274;-55
2022/08/22 05:04:42;;;;;;;1.25;1.15;;;;;;;;;;1811988;77;27363;-57
2022/08/22 05:07:14;;;;;;;0.90;0.90;;;;;;;;;;1814227;77;26344;-57
2022/08/22 05:09:43;;;;;;;1.67;1.02;;;;;;;;;;1820083;77;26735;-57
2022/08/22 05:12:13;;;;;;;4.30;1.30;;;;;;;;;;1817713;77;27403;-56
2022/08/22 05:14:48;;;;;;;1.15;1.10;;;;;;;;;;1816898;77;26297;-57
2022/08/22 05:17:17;;;;;;;3.08;1.00;;;;;;;;;;1809868;77;26292;-56
2022/08/22 05:19:46;;;;;;;3.02;1.17;;;;;;;;;;1817889;77;26356;-51
2022/08/22 05:22:15;;;;;;;2.77;1.10;;;;;;;;;;1817302;77;26300;-56
2022/08/22 05:24:45;;;;;;;1.17;0.90;;;;;;;;;;1818338;77;26352;-58
2022/08/22 05:27:13;;;;;;;2.40;1.17;;;;;;;;;;1813877;77;26686;-56
2022/08/22 05:29:42;;;;;;;1.75;1.10;;;;;;;;;;1809734;77;26282;-55
2022/08/22 05:32:11;;;;;;;1.85;1.02;;;;;;;;;;1825034;77;26301;-53
2022/08/22 05:34:40;;;;;;;0.90;0.90;;;;;;;;;;1826166;77;26282;-56
2022/08/22 05:37:18;;;;;;;0.85;0.85;;;;;;;;;;1816733;77;26370;-57
2022/08/22 05:39:47;;;;;;;2.30;1.30;;;;;;;;;;1821248;77;26786;-56
2022/08/22 05:42:18;;;;;;;1.25;1.10;;;;;;;;;;1839746;77;26758;-55
2022/08/22 05:44:46;;;;;;;1.45;0.90;;;;;;;;;;1853343;76;26677;-57
2022/08/22 05:47:21;;;;;;;3.58;1.12;;;;;;;;;;1856939;75;26266;-55
2022/08/22 05:49:50;;;;;;;5.12;1.00;;;;;;;;;;1850631;76;26584;-57
2022/08/22 05:52:19;;;;;;;2.25;1.22;;;;;;;;;;1843130;76;26293;-56
2022/08/22 05:54:54;;;;;;;1.25;1.00;;;;;;;;;;1845265;76;26282;-55
2022/08/22 05:57:32;;;;;;;2.55;1.30;;;;;;;;;;1849411;76;27227;-56
2022/08/22 06:00:10;;;;;;;1.12;1.10;;;;;;;;;;1853952;76;26715;-57
2022/08/22 06:02:48;;;;;;;1.92;1.17;;;;;;;;;;1839289;76;26262;-58
2022/08/22 06:05:17;;;;;;;4.15;1.95;;;;;;;;;;1856242;76;26267;-47
2022/08/22 06:07:46;;;;;;;3.77;1.80;;;;;;;;;;1853141;75;26316;-50
2022/08/22 06:10:17;;;;;;;4.70;2.00;;;;;;;;;;1841249;76;26348;-48
2022/08/22 06:12:53;;;;;;;2.60;2.20;;;;;;;;;;1856441;76;26912;-51
2022/08/22 06:15:34;;;;;;;2.42;1.70;;;;;;;;;;1846471;75;26262;-51
2022/08/22 06:18:04;;;;;;;1.72;1.62;;;;;;;;;;1866726;75;26317;-50
2022/08/22 06:20:32;;;;;;;1.80;1.70;;;;;;;;;;1863383;75;26279;-49
2022/08/22 06:23:01;;;;;;;1.47;1.47;;;;;;;;;;1835220;76;26351;-51
2022/08/22 06:25:30;;;;;;;1.60;1.50;;;;;;;;;;1849746;76;26289;-53
2022/08/22 06:27:59;;;;;;;1.67;1.57;;;;;;;;;;1848099;76;26298;-49
2022/08/22 06:30:28;;;;;;;1.67;1.55;;;;;;;;;;1852575;76;26385;-49
2022/08/22 06:32:57;;;;;;;1.67;1.50;;;;;;;;;;1855840;76;26242;-48
2022/08/22 06:35:26;;;;;;;2.47;1.30;;;;;;;;;;1858145;76;26290;-45
2022/08/22 06:37:55;;;;;;;1.47;1.37;;;;;;;;;;1858728;76;26430;-48
2022/08/22 06:40:23;;;;;;;1.30;1.20;;;;;;;;;;1863757;76;26328;-45
2022/08/22 06:42:51;;;;;;;1.65;1.37;;;;;;;;;;1849584;76;26291;-50
2022/08/22 06:45:23;;;;;;;1.77;1.40;;;;;;;;;;1847271;76;26273;-48
2022/08/22 06:48:07;;;;;;;1.85;1.50;;;;;;;;;;1845015;76;26343;-49
2022/08/22 06:50:36;;;;;;;1.40;1.20;;;;;;;;;;1850777;75;26665;-46
2022/08/22 06:53:14;;;;;;;1.55;1.42;;;;;;;;;;1844813;75;26253;-46
2022/08/22 06:55:44;;;;;;;2.83;1.20;;;;;;;;;;1855569;75;26201;-46
2022/08/22 06:58:13;;;;;;;1.40;1.30;;;;;;;;;;1845399;75;26277;-45
2022/08/22 07:00:41;;;;;;;1.00;1.00;;;;;;;;;;1856274;76;26282;-45
2022/08/22 07:03:16;;;;;;;2.62;1.30;;;;;;;;;;1847217;75;26296;-49
2022/08/22 07:05:43;;;;;;;1.10;1.00;;;;;;;;;;1856401;75;26319;-46
2022/08/22 07:08:12;;;;;;;1.70;1.12;;;;;;;;;;1852276;76;26263;-47
2022/08/22 07:10:41;;;;;;;0.90;0.90;;;;;;;;;;1855221;75;26234;-48
2022/08/22 07:13:12;;;;;;;3.00;0.95;;;;;;;;;;1857489;75;26258;-45
2022/08/22 07:15:40;;;;;;;1.98;1.17;;;;;;;;;;1863508;75;26271;-45
2022/08/22 07:18:09;;;;;;;1.87;1.20;;;;;;;;;;1851178;75;26484;-47
2022/08/22 07:20:40;;;;;;;1.10;1.00;;;;;;;;;;1846595;75;26731;-46
2022/08/22 07:23:11;;;;;;;1.05;1.05;;;;;;;;;;1874132;75;26688;-54
2022/08/22 07:25:40;;;;;;;1.10;1.00;;;;;;;;;;1856550;76;26252;-53
2022/08/22 07:28:21;;;;;;;0.90;0.90;;;;;;;;;;1850261;75;26360;-54
2022/08/22 07:30:56;;;;;;;1.10;1.00;;;;;;;;;;1864316;75;26254;-52
2022/08/22 07:33:27;;;;;;;1.02;1.00;;;;;;;;;;1850691;76;26563;-48
2022/08/22 07:36:02;;;;;;;0.75;0.75;;;;;;;;;;1860910;75;26360;-47
2022/08/22 07:38:34;;;;;;;2.02;0.90;;;;;;;;;;1852655;76;26305;-48
2022/08/22 07:41:06;;;;;;;0.93;0.90;;;;;;;;;;1858830;77;26640;-47
2022/08/22 07:43:35;;;;;;;1.02;0.90;;;;;;;;;;1860136;75;26307;-50
2022/08/22 07:46:04;;;;;;;1.05;0.90;;;;;;;;;;1857959;76;26336;-45
2022/08/22 07:48:33;;;;;;;1.05;0.93;;;;;;;;;;1833396;76;26729;-46
2022/08/22 07:51:04;;;;;;;1.12;1.00;;;;;;;;;;1852447;76;26832;-47
2022/08/22 07:53:48;;;;;;;1.02;0.90;;;;;;;;;;1854132;76;27502;-51
2022/08/22 07:56:23;;;;;;;1.67;1.10;;;;;;;;;;1850908;76;26364;-51
2022/08/22 07:58:52;;;;;;;1.10;1.10;;;;;;;;;;1850830;75;26397;-47
2022/08/22 08:01:20;;;;;;;0.85;0.78;;;;;;;;;;1854479;75;26277;-47
2022/08/22 08:03:55;;;;;;;1.07;0.80;;;;;;;;;;1854410;75;26248;-46
2022/08/22 08:06:23;;;;;;;1.17;0.80;;;;;;;;;;1846743;76;26761;-51
2022/08/22 08:08:51;;;;;;;1.35;0.88;;;;;;;;;;1838507;76;26399;-49
2022/08/22 08:11:20;;;;;;;0.82;0.82;;;;;;;;;;1849806;76;26270;-50
2022/08/22 08:13:48;;;;;;;1.07;0.88;;;;;;;;;;1845937;75;26277;-47
2022/08/22 08:16:18;;;;;;;0.80;0.80;;;;;;;;;;1849349;76;26285;-44
2022/08/22 08:18:47;;;;;;;1.45;0.70;;;;;;;;;;1852902;76;26282;-49
2022/08/22 08:21:25;;;;;;;1.15;0.80;;;;;;;;;;1847168;76;26804;-49
2022/08/22 08:23:53;;;;;;;0.68;0.68;;;;;;;;;;1843182;75;26296;-49
2022/08/22 08:26:25;;;;;;;0.78;0.78;;;;;;;;;;1841538;75;27242;-48
2022/08/22 08:28:54;;;;;;;0.93;0.93;;;;;;;;;;1842984;76;26411;-46
2022/08/22 08:31:25;;;;;;;0.80;0.80;;;;;;;;;;1850466;75;26330;-45
2022/08/22 08:34:04;;;;;;;0.80;0.80;;;;;;;;;;1845573;75;26266;-48
2022/08/22 08:36:35;;;;;;;0.93;0.90;;;;;;;;;;1849450;75;26603;-47
2022/08/22 08:39:11;;;;;;;0.70;0.70;;;;;;;;;;1848861;76;27249;-48
2022/08/22 08:41:40;;;;;;;1.07;0.90;;;;;;;;;;1837900;76;26282;-49
2022/08/22 08:44:11;;;;;;;0.70;0.70;;;;;;;;;;1843350;76;26364;-46
2022/08/22 08:46:49;;;;;;;0.95;0.80;;;;;;;;;;1846283;76;26697;-49
2022/08/22 08:49:21;;;;;;;2.15;0.88;;;;;;;;;;1852908;76;26247;-50
2022/08/22 08:51:59;;;;;;;0.70;0.70;;;;;;;;;;1853788;76;26316;-51
2022/08/22 08:54:44;;;;;;;0.80;0.70;;;;;;;;;;1847333;76;26294;-48
2022/08/22 08:57:19;;;;;;;1.17;0.80;;;;;;;;;;1844057;76;26324;-48
2022/08/22 09:00:00;;;;;;;1.22;0.80;;;;;;;;;;1859576;76;26215;-47
2022/08/22 09:02:47;;;;;;;1.15;0.80;;;;;;;;;;1852132;76;26823;-46
2022/08/22 09:05:19;;;;;;;0.80;0.80;;;;;;;;;;1857570;77;26278;-47
2022/08/22 09:08:04;;;;;;;1.42;0.62;;;;;;;;;;1860755;77;27286;-45
2022/08/22 09:10:45;;;;;;;1.20;0.90;;;;;;;;;;1854831;76;26302;-49
2022/08/22 09:13:19;;;;;;;1.15;0.68;;;;;;;;;;1822093;77;26281;-48
2022/08/22 09:15:51;;;;;;;1.77;0.80;;;;;;;;;;1857200;77;26731;-48
2022/08/22 09:18:36;;;;;;;1.27;0.70;;;;;;;;;;1859503;76;26291;-48
2022/08/22 09:21:11;;;;;;;0.80;0.70;;;;;;;;;;1851156;76;26825;-51
2022/08/22 09:23:43;;;;;;;1.47;0.90;;;;;;;;;;1860918;77;26268;-46
2022/08/22 09:26:12;;;;;;;0.70;0.57;;;;;;;;;;1860626;76;26255;-53
2022/08/22 09:28:40;;;;;;;1.00;0.70;;;;;;;;;;1853928;76;26379;-48
2022/08/22 09:31:09;;;;;;;0.68;0.68;;;;;;;;;;1840715;76;26318;-47
2022/08/22 09:33:50;;;;;;;0.90;0.70;;;;;;;;;;1844024;77;26273;-49
2022/08/22 09:36:25;;;;;;;0.80;0.80;;;;;;;;;;1846433;77;26283;-50
2022/08/22 09:38:54;;;;;;;1.67;0.70;;;;;;;;;;1852706;76;26257;-51
2022/08/22 09:41:35;;;;;;;0.95;0.70;;;;;;;;;;1855972;77;26302;-51
2022/08/22 09:44:04;;;;;;;3.42;0.70;;;;;;;;;;1859676;76;26314;-54
2022/08/22 09:46:35;;;;;;;0.60;0.60;;;;;;;;;;1843735;77;26269;-49
2022/08/22 09:49:04;;;;;;;0.50;0.50;;;;;;;;;;1859565;75;26344;-44
2022/08/22 09:51:33;;;;;;;0.60;0.60;;;;;;;;;;1853386;77;26294;-48
2022/08/22 09:54:02;;;;;;;0.40;0.40;;;;;;;;;;1861453;77;26270;-44
2022/08/22 09:56:34;;;;;;;0.60;0.60;;;;;;;;;;1862893;77;26301;-46
2022/08/22 09:59:03;;;;;;;0.50;0.50;;;;;;;;;;1864193;75;26352;-47
2022/08/22 10:01:32;;;;;;;0.40;0.40;;;;;;;;;;1863956;76;26262;-46
2022/08/22 10:04:04;;;;;;;0.70;0.70;;;;;;;;;;1855769;77;27143;-51
2022/08/22 10:06:32;;;;;;;0.50;0.50;;;;;;;;;;1854868;77;26270;-48
2022/08/22 10:09:04;;;;;;;0.60;0.60;;;;;;;;;;1840758;75;25874;-49
2022/08/22 10:11:39;;;;;;;0.50;0.50;;;;;;;;;;1858611;75;26262;-48
2022/08/22 10:14:14;;;;;;;0.60;0.60;;;;;;;;;;1861891;77;26271;-47
2022/08/22 10:16:52;;;;;;;0.70;0.70;;;;;;;;;;1861789;76;26275;-49
2022/08/22 10:19:27;;;;;;;0.62;0.62;;;;;;;;;;1847204;75;26282;-46
2022/08/22 10:22:13;;;;;;;0.50;0.50;;;;;;;;;;1851791;76;26313;-48
2022/08/22 10:24:45;;;;;;;0.70;0.70;;;;;;;;;;1847702;77;26304;-52
2022/08/22 10:27:32;;;;;;;0.50;0.50;;;;;;;;;;1851213;77;26305;-49
2022/08/22 10:30:01;;;;;;;0.40;0.40;;;;;;;;;;1847278;75;26324;-48
2022/08/22 10:32:48;;;;;;;0.60;0.60;;;;;;;;;;1842927;75;26302;-48
2022/08/22 10:35:26;;;;;;;1.77;0.70;;;;;;;;;;1841404;75;26255;-48
2022/08/22 10:37:57;;;;;;;0.50;0.50;;;;;;;;;;1845936;77;26317;-48
2022/08/22 10:40:26;;;;;;;0.60;0.60;;;;;;;;;;1856257;76;26844;-46
2022/08/22 10:43:01;;;;;;;0.55;0.55;;;;;;;;;;1854212;75;27479;-48
2022/08/22 10:45:30;;;;;;;0.65;0.60;;;;;;;;;;1847915;76;26372;-51
2022/08/22 10:47:59;;;;;;;0.70;0.60;;;;;;;;;;1851527;76;26311;-47
2022/08/22 10:50:29;;;;;;;0.65;0.60;;;;;;;;;;1847055;76;26310;-52
2022/08/22 10:53:28;;;;;;;2.30;0.80;;;;;;;;;;1851759;75;26384;-46
2022/08/22 10:55:27;;;;;;;0.40;0.40;;;;;;;;;;1834380;76;26814;-48
2022/08/22 10:58:05;;;;;;;0.50;0.45;;;;;;;;;;1846232;76;26266;-49
2022/08/22 11:00:46;;;;;;;1.98;0.68;;;;;;;;;;1844242;76;26325;-47
2022/08/22 11:03:21;;;;;;;0.30;0.30;;;;;;;;;;1839960;76;26270;-45
2022/08/22 11:05:49;;;;;;;0.40;0.40;;;;;;;;;;1851838;77;26318;-47
2022/08/22 11:08:31;;;;;;;0.72;0.40;;;;;;;;;;1847058;76;27095;-49
2022/08/22 11:11:16;;;;;;;0.85;0.57;;;;;;;;;;1846369;76;26318;-49
2022/08/22 11:13:54;;;;;;;0.50;0.50;;;;;;;;;;1845811;75;26380;-46
2022/08/22 11:16:23;;;;;;;0.30;0.30;;;;;;;;;;1852781;76;26580;-50
2022/08/22 11:19:09;;;;;;;0.45;0.45;;;;;;;;;;1837940;77;26290;-48
2022/08/22 11:21:41;;;;;;;0.30;0.30;;;;;;;;;;1854799;75;26753;-51
2022/08/22 11:24:26;;;;;;;0.40;0.40;;;;;;;;;;1849249;76;26258;-49
2022/08/22 11:26:55;;;;;;;0.50;0.50;;;;;;;;;;1856881;76;26269;-46
2022/08/22 11:29:36;;;;;;;0.55;0.55;;;;;;;;;;1843840;77;26367;-48
2022/08/22 11:32:23;;;;;;;0.68;0.40;;;;;;;;;;1847568;75;26289;-48
2022/08/22 11:34:52;;;;;;;0.70;0.40;;;;;;;;;;1842484;77;26816;-48
2022/08/22 11:37:20;;;;;;;0.42;0.42;;;;;;;;;;1854438;76;27405;-46
2022/08/22 11:40:06;;;;;;;0.50;0.50;;;;;;;;;;1844338;75;26857;-50
2022/08/22 11:42:35;;;;;;;1.30;0.50;;;;;;;;;;1849460;76;26282;-46
2022/08/22 11:45:03;;;;;;;0.55;0.40;;;;;;;;;;1839949;77;26353;-48
2022/08/22 11:47:32;;;;;;;1.55;0.30;;;;;;;;;;1846836;77;26278;-47
2022/08/22 11:50:04;;;;;;;0.40;0.40;;;;;;;;;;1848612;75;26335;-51
2022/08/22 11:52:50;;;;;;;0.70;0.47;;;;;;;;;;1852849;77;26302;-50
2022/08/22 11:55:34;;;;;;;0.37;0.37;;;;;;;;;;1845999;77;26369;-51
2022/08/22 11:58:08;;;;;;;0.57;0.50;;;;;;;;;;1851251;75;26263;-51
2022/08/22 12:00:52;;;;;;;0.40;0.40;;;;;;;;;;1841717;77;26360;-47
2022/08/22 12:03:27;;;;;;;0.30;0.30;;;;;;;;;;1846356;77;26279;-47
2022/08/22 12:05:56;;;;;;;0.55;0.55;;;;;;;;;;1848553;75;26718;-50
2022/08/22 12:08:25;;;;;;;0.45;0.45;;;;;;;;;;1854705;75;26712;-52
2022/08/22 12:10:56;;;;;;;0.30;0.30;;;;;;;;;;1802021;76;26301;-47
2022/08/22 12:13:42;;;;;;;0.33;0.33;;;;;;;;;;1852882;77;26754;-48
2022/08/22 12:16:11;;;;;;;0.53;0.33;;;;;;;;;;1839659;76;26345;-56
2022/08/22 12:18:43;;;;;;;0.40;0.40;;;;;;;;;;1846684;75;26773;-50
2022/08/22 12:21:24;;;;;;;0.33;0.33;;;;;;;;;;1848591;76;26371;-47
2022/08/22 12:23:56;;;;;;;0.50;0.45;;;;;;;;;;1847035;76;26270;-46
2022/08/22 12:26:37;;;;;;;0.50;0.50;;;;;;;;;;1857734;76;26270;-48
2022/08/22 12:29:12;;;;;;;0.75;0.30;;;;;;;;;;1848814;75;26278;-49
2022/08/22 12:31:40;;;;;;;0.30;0.30;;;;;;;;;;1844212;77;26796;-48
2022/08/22 12:34:18;;;;;;;1.10;0.30;;;;;;;;;;1858540;77;26726;-46
2022/08/22 12:36:50;;;;;;;0.30;0.30;;;;;;;;;;1863538;76;26274;-45
2022/08/22 12:39:28;;;;;;;1.67;0.40;;;;;;;;;;1861892;76;26841;-48
2022/08/22 12:41:56;;;;;;;0.40;0.40;;;;;;;;;;1863647;77;26270;-51
2022/08/22 12:44:37;;;;;;;0.30;0.30;;;;;;;;;;1859756;76;26255;-52
2022/08/22 12:47:09;;;;;;;0.25;0.25;;;;;;;;;;1864707;76;25956;-50
2022/08/22 12:49:41;;;;;;;0.30;0.30;;;;;;;;;;1857747;75;26334;-50
2022/08/22 12:52:27;;;;;;;0.40;0.40;;;;;;;;;;1853171;77;27475;-47
2022/08/22 12:55:08;;;;;;;0.37;0.37;;;;;;;;;;1841467;76;26792;-47
2022/08/22 12:57:37;;;;;;;0.40;0.40;;;;;;;;;;1843422;77;26250;-48
2022/08/22 13:00:23;;;;;;;0.40;0.40;;;;;;;;;;1845544;76;26756;-48
2022/08/22 13:02:52;;;;;;;0.37;0.37;;;;;;;;;;1853989;76;26282;-49
2022/08/22 13:05:21;;;;;;;0.50;0.50;;;;;;;;;;1851490;77;26288;-47
2022/08/22 13:07:59;;;;;;;0.35;0.35;;;;;;;;;;1844815;77;26258;-49
2022/08/22 13:10:29;;;;;;;0.40;0.40;;;;;;;;;;1854228;76;26355;-47
2022/08/22 13:12:58;;;;;;;0.40;0.40;;;;;;;;;;1860112;76;26945;-49
2022/08/22 13:15:30;;;;;;;0.40;0.40;;;;;;;;;;1856189;76;26720;-55
2022/08/22 13:18:01;;;;;;;0.40;0.40;;;;;;;;;;1852315;76;26215;-54
2022/08/22 13:20:40;;;;;;;0.40;0.40;;;;;;;;;;1851681;76;26292;-49
2022/08/22 13:23:12;;;;;;;0.40;0.40;;;;;;;;;;1849323;76;26235;-49
2022/08/22 13:25:46;;;;;;;0.20;0.20;;;;;;;;;;1848643;77;26341;-49
2022/08/22 13:28:14;;;;;;;0.53;0.50;;;;;;;;;;1832172;76;26306;-51
2022/08/22 13:30:42;;;;;;;0.35;0.30;;;;;;;;;;1856651;77;26322;-47
2022/08/22 13:33:10;;;;;;;1.85;0.40;;;;;;;;;;1850048;76;26363;-52
2022/08/22 13:35:39;;;;;;;0.40;0.40;;;;;;;;;;1846236;76;27459;-49
2022/08/22 13:38:08;;;;;;;0.30;0.30;;;;;;;;;;1851216;76;26254;-49
2022/08/22 13:40:36;;;;;;;0.20;0.20;;;;;;;;;;1861262;76;26266;-50
2022/08/22 13:43:08;;;;;;;0.40;0.40;;;;;;;;;;1869905;76;26647;-50
2022/08/22 13:45:36;;;;;;;0.85;0.42;;;;;;;;;;1859599;75;26296;-47
2022/08/22 13:48:08;;;;;;;0.37;0.37;;;;;;;;;;1859595;76;26875;-49
2022/08/22 13:50:36;;;;;;;0.42;0.42;;;;;;;;;;1864309;76;26256;-51
2022/08/22 13:53:05;;;;;;;0.93;0.50;;;;;;;;;;1840355;75;26316;-47
2022/08/22 13:55:34;;;;;;;1.67;0.47;;;;;;;;;;1848918;76;26938;-51
2022/08/22 13:58:06;;;;;;;0.50;0.50;;;;;;;;;;1844808;76;26734;-48
2022/08/22 14:00:35;;;;;;;0.40;0.40;;;;;;;;;;1837133;76;26273;-47
2022/08/22 14:03:22;;;;;;;0.40;0.40;;;;;;;;;;1852450;75;26398;-47
2022/08/22 14:05:51;;;;;;;0.33;0.33;;;;;;;;;;1863264;75;26249;-47
2022/08/22 14:08:19;;;;;;;0.50;0.50;;;;;;;;;;1849295;76;26852;-46
2022/08/22 14:10:48;;;;;;;0.60;0.60;;;;;;;;;;1849607;76;26615;-48
2022/08/22 14:13:32;;;;;;;0.42;0.42;;;;;;;;;;1843166;75;26370;-47
2022/08/22 14:16:04;;;;;;;0.82;0.40;;;;;;;;;;1849588;77;26275;-50
2022/08/22 14:18:35;;;;;;;1.27;0.42;;;;;;;;;;1838800;77;26278;-52
2022/08/22 14:21:20;;;;;;;1.75;0.50;;;;;;;;;;1843334;75;25686;-53
2022/08/22 14:23:49;;;;;;;2.12;0.50;;;;;;;;;;1847364;75;26330;-54
2022/08/22 14:26:27;;;;;;;1.05;0.60;;;;;;;;;;1850831;75;26276;-56
2022/08/22 14:28:55;;;;;;;1.02;0.50;;;;;;;;;;1852681;76;27457;-54
2022/08/22 14:31:24;;;;;;;1.55;0.60;;;;;;;;;;1857097;75;27823;-54
2022/08/22 14:33:53;;;;;;;1.72;0.55;;;;;;;;;;1859026;77;26966;-54
2022/08/22 14:36:25;;;;;;;0.40;0.40;;;;;;;;;;1836797;76;27457;-48
2022/08/22 14:38:59;;;;;;;0.40;0.40;;;;;;;;;;1854443;76;26268;-53
2022/08/22 14:41:28;;;;;;;0.93;0.50;;;;;;;;;;1858893;76;26287;-55
2022/08/22 14:44:09;;;;;;;0.98;0.50;;;;;;;;;;1859893;75;26298;-52
2022/08/22 14:46:38;;;;;;;0.40;0.40;;;;;;;;;;1855312;76;26310;-54
2022/08/22 14:49:07;;;;;;;0.40;0.33;;;;;;;;;;1845582;75;26316;-51
2022/08/22 14:51:34;;;;;;;0.80;0.80;;;;;;;;;;1856199;75;26308;-54
2022/08/22 14:54:06;;;;;;;0.70;0.40;;;;;;;;;;1860166;75;26218;-54
2022/08/22 14:56:34;;;;;;;0.30;0.25;;;;;;;;;;1853902;75;26333;-54
2022/08/22 14:59:03;;;;;;;1.20;0.40;;;;;;;;;;1849008;75;26305;-55
2022/08/22 15:01:32;;;;;;;0.40;0.40;;;;;;;;;;1860084;75;26333;-53
2022/08/22 15:04:04;;;;;;;0.60;0.60;;;;;;;;;;1860731;75;26254;-54
2022/08/22 15:06:41;;;;;;;0.50;0.50;;;;;;;;;;1860234;75;26718;-55
2022/08/22 15:09:19;;;;;;;0.50;0.50;;;;;;;;;;1861017;76;26812;-51
2022/08/22 15:11:47;;;;;;;0.30;0.30;;;;;;;;;;1861203;75;26737;-54
2022/08/22 15:14:25;;;;;;;0.42;0.42;;;;;;;;;;1860617;75;26282;-53
2022/08/22 15:16:53;;;;;;;0.47;0.47;;;;;;;;;;1861086;75;26733;-55
2022/08/22 15:19:26;;;;;;;0.30;0.30;;;;;;;;;;1858319;76;26278;-54
2022/08/22 15:22:11;;;;;;;0.42;0.40;;;;;;;;;;1859445;75;26282;-54